Time;durP1;ratioP1;P1;durP2;ratioP2;P2;SDS_P1;SDS_P2;PMS_P1;PMS_P2;Temp;Humidity;BMP_temperature;BMP_pressure;BME280_temperature;BME280_humidity;BME280_pressure;Samples;Min_cycle;Max_cycle;Signal;HPM_P1;HPM_P2
2020/12/09 03:47:04;;;;;;;32.08;14.57;;;2.30;99.90;;;;;;5541757;23;89910;-80
2020/12/09 03:49:30;;;;;;;34.30;15.07;;;2.30;99.90;;;;;;4891424;28;86641;-80
2020/12/09 03:51:56;;;;;;;31.00;15.48;;;2.30;99.90;;;;;;4894226;28;86905;-80
2020/12/09 03:54:21;;;;;;;30.52;15.30;;;2.20;99.90;;;;;;4890087;28;86865;-80
2020/12/09 03:56:47;;;;;;;32.30;14.93;;;2.20;99.90;;;;;;4890779;28;87032;-80
2020/12/09 03:59:13;;;;;;;30.23;14.77;;;2.20;99.90;;;;;;4886312;28;87175;-80
2020/12/09 04:01:38;;;;;;;34.42;14.52;;;2.20;99.90;;;;;;4870393;29;88018;-80
2020/12/09 04:04:05;;;;;;;30.90;15.70;;;2.30;99.90;;;;;;4877838;28;86557;-80
2020/12/09 04:06:30;;;;;;;32.97;17.15;;;2.10;99.90;;;;;;4890990;28;87097;-80
2020/12/09 04:08:57;;;;;;;31.45;15.15;;;;;;;;;;4884060;28;87115;-80
2020/12/09 04:11:22;;;;;;;33.03;14.52;;;2.20;99.90;;;;;;4889521;28;86930;-80
2020/12/09 04:13:48;;;;;;;33.90;16.85;;;2.70;99.90;;;;;;4885232;28;86838;-80
2020/12/09 04:16:14;;;;;;;32.15;15.40;;;2.30;99.90;;;;;;4871409;29;86805;-80
2020/12/09 04:18:39;;;;;;;28.08;13.10;;;2.40;99.90;;;;;;4890522;28;86303;-80
2020/12/09 04:21:05;;;;;;;29.05;13.88;;;2.40;99.90;;;;;;4870648;29;86841;-80
2020/12/09 04:23:31;;;;;;;30.70;14.40;;;2.40;99.90;;;;;;4885185;28;86938;-80
2020/12/09 04:25:56;;;;;;;28.48;14.60;;;2.40;99.90;;;;;;4870710;29;87925;-80
2020/12/09 04:28:22;;;;;;;31.42;14.43;;;2.50;99.90;;;;;;4872109;28;86862;-80
2020/12/09 04:30:48;;;;;;;27.58;13.98;;;2.60;99.90;;;;;;4889869;28;87670;-80
2020/12/09 04:33:13;;;;;;;30.67;14.25;;;2.60;99.90;;;;;;4886716;28;86610;-80
2020/12/09 04:35:41;;;;;;;28.80;13.90;;;2.50;99.90;;;;;;4882792;28;87049;-80
2020/12/09 04:38:07;;;;;;;29.23;13.45;;;2.50;99.90;;;;;;4906428;28;86946;-80
2020/12/09 04:40:32;;;;;;;30.50;13.30;;;2.60;99.90;;;;;;4871110;28;88041;-81
2020/12/09 04:43:00;;;;;;;31.23;14.48;;;2.70;99.90;;;;;;4871012;28;87415;-80
2020/12/09 04:45:31;;;;;;;33.88;14.10;;;2.70;99.90;;;;;;4872669;28;87007;-80
2020/12/09 04:48:06;;;;;;;32.25;14.85;;;2.70;99.90;;;;;;4899612;28;87055;-80
2020/12/09 04:50:38;;;;;;;34.92;15.52;;;3.00;99.90;;;;;;4899313;28;88453;-80
2020/12/09 04:53:10;;;;;;;33.80;14.60;;;2.70;99.90;;;;;;4910302;28;87660;-80
2020/12/09 04:55:49;;;;;;;32.25;14.88;;;2.80;99.90;;;;;;4911572;28;87171;-80
2020/12/09 04:58:20;;;;;;;29.00;14.02;;;2.90;99.90;;;;;;4906086;28;86970;-80
2020/12/09 05:00:47;;;;;;;35.13;15.15;;;2.90;99.90;;;;;;4891936;28;87352;-80
2020/12/09 05:03:20;;;;;;;29.40;13.48;;;3.00;99.90;;;;;;4888226;28;87013;-80
2020/12/09 05:05:47;;;;;;;34.85;14.75;;;3.00;99.90;;;;;;4903036;28;86846;-80
2020/12/09 05:08:18;;;;;;;31.05;13.35;;;3.10;99.90;;;;;;4906672;28;86231;-80
2020/12/09 05:10:50;;;;;;;34.25;14.68;;;3.10;99.90;;;;;;4897426;28;86985;-80
2020/12/09 05:13:24;;;;;;;33.25;14.55;;;3.20;99.90;;;;;;4906791;28;87044;-80
2020/12/09 05:15:57;;;;;;;30.55;14.80;;;3.30;99.90;;;;;;4894887;28;87968;-80
2020/12/09 05:18:39;;;;;;;34.83;14.73;;;3.30;99.90;;;;;;4906419;28;86905;-80
2020/12/09 05:21:08;;;;;;;;;;;3.30;99.90;;;;;;4892724;28;86689;-80
2020/12/09 05:23:44;;;;;;;27.75;13.52;;;3.20;99.90;;;;;;4903191;28;87025;-80
2020/12/09 05:26:16;;;;;;;34.40;13.93;;;3.60;99.90;;;;;;4901671;28;87079;-81
2020/12/09 05:28:42;;;;;;;28.33;13.90;;;3.50;99.90;;;;;;4908600;28;86832;-81
2020/12/09 05:31:21;;;;;;;33.28;13.45;;;3.30;99.90;;;;;;4899019;28;88141;-81
2020/12/09 05:33:47;;;;;;;27.60;14.07;;;3.30;99.90;;;;;;4903181;28;87013;-80
2020/12/09 05:36:13;;;;;;;25.58;13.10;;;3.30;99.90;;;;;;4898007;28;86563;-81
2020/12/09 05:38:39;;;;;;;29.92;14.32;;;3.40;99.90;;;;;;4901298;28;87030;-80
2020/12/09 05:41:11;;;;;;;39.00;14.63;;;3.40;99.90;;;;;;4896160;28;88203;-81
2020/12/09 05:43:42;;;;;;;36.97;15.25;;;3.40;99.90;;;;;;4891249;28;88338;-81
2020/12/09 05:46:09;;;;;;;;;;;3.40;99.90;;;;;;4895756;28;87035;-80
2020/12/09 05:48:35;;;;;;;28.38;12.77;;;3.40;99.90;;;;;;4885088;28;88630;-80
2020/12/09 05:51:01;;;;;;;29.48;14.02;;;3.40;99.90;;;;;;4907850;28;87249;-80
2020/12/09 05:53:32;;;;;;;31.90;15.15;;;3.40;99.90;;;;;;4897311;28;87064;-81
2020/12/09 05:56:13;;;;;;;35.08;16.45;;;3.40;99.90;;;;;;4904129;28;86954;-81
2020/12/09 05:58:41;;;;;;;33.33;16.20;;;3.40;99.90;;;;;;4907861;28;86219;-81
2020/12/09 06:01:09;;;;;;;39.65;18.67;;;3.30;99.90;;;;;;4891620;28;87565;-81
2020/12/09 06:03:36;;;;;;;33.20;16.73;;;3.40;99.90;;;;;;4873440;28;88860;-81
2020/12/09 06:06:22;;;;;;;33.70;16.13;;;3.40;99.90;;;;;;4905575;28;88043;-81
2020/12/09 06:08:53;;;;;;;30.92;16.25;;;3.30;99.90;;;;;;4900259;28;86912;-81
2020/12/09 06:11:20;;;;;;;30.40;15.95;;;3.30;99.90;;;;;;4897722;28;86878;-82
2020/12/09 06:13:46;;;;;;;29.40;14.63;;;3.30;99.90;;;;;;4904285;28;87020;-81
2020/12/09 06:16:13;;;;;;;29.92;15.57;;;3.40;99.90;;;;;;4905717;28;86912;-80
2020/12/09 06:18:43;;;;;;;33.83;15.88;;;3.40;99.90;;;;;;4909057;28;87277;-81
2020/12/09 06:21:08;;;;;;;33.10;16.75;;;3.50;99.90;;;;;;4908337;28;87729;-81
2020/12/09 06:23:34;;;;;;;39.30;18.75;;;3.50;99.90;;;;;;4908325;28;86275;-81
2020/12/09 06:26:03;;;;;;;35.20;17.35;;;3.50;99.90;;;;;;4907941;28;86864;-80
2020/12/09 06:28:32;;;;;;;32.72;16.75;;;3.60;99.90;;;;;;4907969;28;87138;-80
2020/12/09 06:31:21;;;;;;;36.08;16.90;;;3.50;99.90;;;;;;4908097;28;89295;-80
2020/12/09 06:33:54;;;;;;;38.50;18.42;;;3.50;99.90;;;;;;4907508;28;87935;-80
2020/12/09 06:36:24;;;;;;;37.00;17.45;;;3.50;99.90;;;;;;4898202;28;86553;-80
2020/12/09 06:39:05;;;;;;;39.37;17.80;;;3.60;99.90;;;;;;4913287;28;86954;-81
2020/12/09 06:41:40;;;;;;;36.47;16.63;;;3.60;99.90;;;;;;4913928;28;88254;-81
2020/12/09 06:44:11;;;;;;;34.22;15.50;;;3.60;99.90;;;;;;4915717;28;87041;-81
2020/12/09 06:46:48;;;;;;;41.13;17.80;;;3.40;99.90;;;;;;4907795;28;86852;-81
2020/12/09 06:49:32;;;;;;;39.22;17.88;;;3.90;99.90;;;;;;4907530;28;86341;-80
2020/12/09 06:52:26;;;;;;;38.00;17.73;;;3.70;99.90;;;;;;4903314;28;88179;-80
2020/12/09 06:54:52;;;;;;;33.35;17.58;;;3.70;99.90;;;;;;4896911;28;87430;-80
2020/12/09 06:57:35;;;;;;;39.65;18.67;;;3.70;99.90;;;;;;4908531;28;90026;-81
2020/12/09 07:00:15;;;;;;;40.55;20.48;;;3.70;99.90;;;;;;4906158;28;86880;-82
2020/12/09 07:02:41;;;;;;;33.58;16.40;;;3.70;99.90;;;;;;4908726;28;87411;-80
2020/12/09 07:05:09;;;;;;;36.63;17.38;;;3.70;99.90;;;;;;4890998;28;88800;-82
2020/12/09 07:07:41;;;;;;;39.53;19.33;;;3.60;99.90;;;;;;4904731;28;86980;-80
2020/12/09 07:10:12;;;;;;;38.42;17.77;;;3.60;99.90;;;;;;4900961;28;86940;-82
2020/12/09 07:12:38;;;;;;;;;;;3.60;99.90;;;;;;4905817;28;87765;-82
2020/12/09 07:15:05;;;;;;;43.72;17.73;;;3.60;99.90;;;;;;4910147;28;86432;-81
2020/12/09 07:17:32;;;;;;;35.70;15.90;;;3.60;99.90;;;;;;4908465;28;86842;-81
2020/12/09 07:19:58;;;;;;;39.72;17.02;;;3.40;99.90;;;;;;4909306;28;86659;-81
2020/12/09 07:22:26;;;;;;;40.22;16.92;;;3.60;99.90;;;;;;4903758;28;88195;-81
2020/12/09 07:24:52;;;;;;;38.45;17.83;;;3.60;99.90;;;;;;4909947;28;88435;-81
2020/12/09 07:27:20;;;;;;;36.50;17.42;;;3.50;99.90;;;;;;4909435;28;87007;-81
2020/12/09 07:29:48;;;;;;;45.67;20.35;;;3.60;99.90;;;;;;4902984;28;87752;-81
2020/12/09 07:32:19;;;;;;;46.47;19.65;;;3.60;99.90;;;;;;4901785;28;87079;-81
2020/12/09 07:34:55;;;;;;;38.33;20.52;;;3.60;99.90;;;;;;4897923;28;86982;-81
2020/12/09 07:37:24;;;;;;;36.65;16.65;;;3.60;99.90;;;;;;4895223;28;87012;-81
2020/12/09 07:39:51;;;;;;;33.58;18.75;;;3.70;99.90;;;;;;4907591;28;86152;-81
2020/12/09 07:42:20;;;;;;;41.88;17.30;;;3.60;99.90;;;;;;4900043;28;87262;-81
2020/12/09 07:44:46;;;;;;;34.67;18.20;;;3.40;99.90;;;;;;4903023;28;87111;-81
2020/12/09 07:47:12;;;;;;;33.47;15.65;;;3.70;99.90;;;;;;4907425;28;87925;-81
2020/12/09 07:49:49;;;;;;;33.00;16.58;;;3.70;99.90;;;;;;4900669;28;87213;-81
2020/12/09 07:52:21;;;;;;;32.88;15.43;;;3.70;99.90;;;;;;4900046;28;87411;-81
2020/12/09 07:54:47;;;;;;;36.35;17.25;;;3.60;99.90;;;;;;4905453;28;87438;-81
2020/12/09 07:57:13;;;;;;;40.40;18.48;;;4.00;99.90;;;;;;4893083;28;86887;-81
2020/12/09 07:59:39;;;;;;;42.28;20.65;;;3.80;99.90;;;;;;4906680;28;86720;-81
2020/12/09 08:02:21;;;;;;;41.17;19.73;;;3.80;99.90;;;;;;4904661;28;87290;-81
2020/12/09 08:05:04;;;;;;;40.83;19.05;;;3.80;99.90;;;;;;4903261;28;86208;-81
2020/12/09 08:07:29;;;;;;;40.13;19.05;;;3.80;99.90;;;;;;4892926;28;87392;-80
2020/12/09 08:10:10;;;;;;;35.42;18.45;;;4.10;99.90;;;;;;4905253;28;86972;-81
2020/12/09 08:12:37;;;;;;;36.15;18.58;;;3.80;99.90;;;;;;4895959;28;87820;-81
2020/12/09 08:15:06;;;;;;;40.72;20.25;;;3.80;99.90;;;;;;4904139;28;87981;-81
2020/12/09 08:17:33;;;;;;;41.42;20.15;;;3.80;99.90;;;;;;4903270;28;86919;-81
2020/12/09 08:20:06;;;;;;;39.08;18.60;;;3.80;99.90;;;;;;4885627;28;87081;-80
2020/12/09 08:22:32;;;;;;;39.95;18.95;;;4.00;99.90;;;;;;4906636;28;87270;-81
2020/12/09 08:25:04;;;;;;;34.67;18.70;;;3.80;99.90;;;;;;4908829;28;88385;-81
2020/12/09 08:27:37;;;;;;;36.80;18.70;;;3.80;99.90;;;;;;4907453;28;86646;-82
2020/12/09 08:30:07;;;;;;;40.58;19.92;;;3.90;99.90;;;;;;4906845;28;86283;-81
2020/12/09 08:32:49;;;;;;;40.05;19.70;;;3.90;99.90;;;;;;4904442;28;87115;-81
2020/12/09 08:35:14;;;;;;;41.85;19.02;;;3.80;99.90;;;;;;4903486;28;86986;-82
2020/12/09 08:37:44;;;;;;;39.90;19.73;;;3.70;99.90;;;;;;4907325;28;87974;-82
2020/12/09 08:40:09;;;;;;;42.50;18.90;;;3.70;99.90;;;;;;4906687;28;86909;-82
2020/12/09 08:42:35;;;;;;;35.85;18.48;;;3.90;99.90;;;;;;4891272;28;88682;-81
2020/12/09 08:45:01;;;;;;;39.45;17.85;;;3.50;99.90;;;;;;4905668;28;86980;-81
2020/12/09 08:47:26;;;;;;;35.85;17.38;;;3.50;99.90;;;;;;4904166;28;87012;-81
2020/12/09 08:49:52;;;;;;;44.63;21.00;;;3.90;99.90;;;;;;4904671;28;87245;-81
2020/12/09 08:52:18;;;;;;;41.92;18.75;;;3.60;99.90;;;;;;4909092;28;87099;-82
2020/12/09 08:54:43;;;;;;;38.78;20.60;;;3.60;99.90;;;;;;4909183;28;86278;-81
2020/12/09 08:57:09;;;;;;;34.92;16.77;;;3.60;99.90;;;;;;4905317;28;86965;-82
2020/12/09 08:59:35;;;;;;;33.05;16.70;;;3.50;99.90;;;;;;4906207;28;86832;-81
2020/12/09 09:02:00;;;;;;;33.15;16.83;;;3.40;99.90;;;;;;4909290;28;88579;-81
2020/12/09 09:04:32;;;;;;;32.80;17.67;;;3.20;99.90;;;;;;4911763;28;88966;-81
2020/12/09 09:06:58;;;;;;;35.72;17.50;;;3.20;99.90;;;;;;4914166;28;87437;-82
2020/12/09 09:09:24;;;;;;;37.92;17.73;;;3.30;99.90;;;;;;4908121;28;86315;-81
2020/12/09 09:11:49;;;;;;;37.97;17.35;;;3.40;99.90;;;;;;4913052;28;86749;-81
2020/12/09 09:14:15;;;;;;;35.58;16.85;;;3.50;99.90;;;;;;4916902;28;88006;-81
2020/12/09 09:16:41;;;;;;;32.45;16.63;;;3.60;99.90;;;;;;4915149;28;86843;-81
2020/12/09 09:19:07;;;;;;;34.60;16.38;;;3.40;99.90;;;;;;4904947;28;86100;-82
2020/12/09 09:21:33;;;;;;;38.00;17.48;;;3.50;99.90;;;;;;4900594;28;87287;-82
2020/12/09 09:23:59;;;;;;;28.02;14.30;;;3.60;99.90;;;;;;4900204;28;87398;-82
2020/12/09 09:26:27;;;;;;;31.35;15.63;;;3.50;99.90;;;;;;4904977;28;88001;-81
2020/12/09 09:28:52;;;;;;;36.65;16.75;;;3.50;99.90;;;;;;4906275;28;86953;-81
2020/12/09 09:31:18;;;;;;;31.63;14.65;;;3.50;99.90;;;;;;4904644;28;87270;-81
2020/12/09 09:33:47;;;;;;;29.63;15.05;;;3.70;99.90;;;;;;4892881;28;86829;-82
2020/12/09 09:36:12;;;;;;;28.10;15.60;;;3.90;99.90;;;;;;4906880;28;86979;-81
2020/12/09 09:38:38;;;;;;;25.38;14.05;;;3.80;99.90;;;;;;4904195;28;86862;-81
2020/12/09 09:41:04;;;;;;;29.30;15.25;;;3.50;99.90;;;;;;4906429;28;87071;-82
2020/12/09 09:43:29;;;;;;;30.02;14.77;;;3.60;99.90;;;;;;4905885;28;87552;-82
2020/12/09 09:45:55;;;;;;;28.40;14.38;;;3.80;99.90;;;;;;4906076;28;86771;-81
2020/12/09 09:48:21;;;;;;;30.42;16.20;;;3.80;99.90;;;;;;4901576;28;86815;-81
2020/12/09 09:50:46;;;;;;;25.65;13.35;;;4.10;99.90;;;;;;4908262;28;88888;-82
2020/12/09 09:53:12;;;;;;;29.30;14.38;;;4.40;99.90;;;;;;4906467;28;87238;-82
2020/12/09 09:55:38;;;;;;;26.00;13.88;;;4.10;99.90;;;;;;4906065;28;87055;-81
2020/12/09 09:58:04;;;;;;;26.58;13.55;;;4.10;99.90;;;;;;4898107;28;87197;-82
2020/12/09 10:00:29;;;;;;;25.55;13.23;;;4.30;99.90;;;;;;4904294;28;87155;-80
2020/12/09 10:02:55;;;;;;;23.45;12.80;;;4.00;99.90;;;;;;4907911;28;87464;-81
2020/12/09 10:05:21;;;;;;;25.52;13.32;;;4.30;99.90;;;;;;4907643;28;86758;-81
2020/12/09 10:07:46;;;;;;;110.68;21.17;;;4.30;99.90;;;;;;4908681;28;85981;-81
2020/12/09 10:10:12;;;;;;;21.88;12.00;;;4.30;99.90;;;;;;4909905;28;88139;-82
2020/12/09 10:12:38;;;;;;;22.48;11.43;;;4.30;99.90;;;;;;4907171;28;87012;-81
2020/12/09 10:15:03;;;;;;;23.50;12.65;;;4.30;99.90;;;;;;4904044;28;87042;-82
2020/12/09 10:17:30;;;;;;;24.55;12.88;;;4.40;99.90;;;;;;4908789;28;87019;-81
2020/12/09 10:19:57;;;;;;;23.70;12.52;;;4.30;99.90;;;;;;4904344;28;86799;-82
2020/12/09 10:22:23;;;;;;;24.02;13.27;;;4.30;99.90;;;;;;4907541;28;87064;-81
2020/12/09 10:24:49;;;;;;;26.60;14.35;;;4.30;99.90;;;;;;4910968;28;86788;-81
2020/12/09 10:27:14;;;;;;;26.67;14.65;;;4.20;99.90;;;;;;4908118;28;87474;-81
2020/12/09 10:29:42;;;;;;;26.75;14.05;;;4.30;99.90;;;;;;4898252;28;87636;-81
2020/12/09 10:32:08;;;;;;;26.27;13.80;;;4.20;99.90;;;;;;4909808;28;87732;-82
2020/12/09 10:34:38;;;;;;;24.75;12.52;;;4.00;99.90;;;;;;4903855;28;87066;-81
2020/12/09 10:37:04;;;;;;;25.48;13.65;;;3.70;99.90;;;;;;4909754;28;86327;-81
2020/12/09 10:39:30;;;;;;;20.25;12.57;;;4.00;99.90;;;;;;4907616;28;89836;-81
2020/12/09 10:41:55;;;;;;;19.83;13.13;;;4.10;99.90;;;;;;4904608;28;88807;-82
2020/12/09 10:44:21;;;;;;;23.23;13.45;;;4.20;99.90;;;;;;4908201;28;86964;-82
2020/12/09 10:46:48;;;;;;;24.13;12.48;;;4.10;99.90;;;;;;4901817;28;87032;-82
2020/12/09 10:49:17;;;;;;;20.05;12.13;;;3.70;99.90;;;;;;4865830;29;90634;-82
2020/12/09 10:51:50;;;;;;;18.83;11.52;;;4.00;99.90;;;;;;4881181;28;88323;-82
2020/12/09 10:54:18;;;;;;;19.38;10.93;;;3.80;99.90;;;;;;4890220;28;86860;-82
2020/12/09 10:56:44;;;;;;;18.17;10.25;;;4.00;99.90;;;;;;4882452;28;85839;-82
2020/12/09 10:59:10;;;;;;;19.70;11.40;;;4.00;99.90;;;;;;4881509;28;87884;-82
2020/12/09 11:01:36;;;;;;;16.70;9.30;;;4.00;99.90;;;;;;4881810;28;87093;-81
2020/12/09 11:04:02;;;;;;;16.17;10.32;;;3.90;99.90;;;;;;4885305;28;88023;-81
2020/12/09 11:06:30;;;;;;;15.95;9.10;;;3.90;99.90;;;;;;4886849;28;87136;-81
2020/12/09 11:08:57;;;;;;;16.35;10.23;;;4.00;99.90;;;;;;4884133;28;86824;-81
2020/12/09 11:11:23;;;;;;;16.27;9.88;;;3.90;99.90;;;;;;4870599;28;88567;-81
2020/12/09 11:13:50;;;;;;;14.88;9.27;;;3.90;99.90;;;;;;4886139;28;86912;-81
2020/12/09 11:16:16;;;;;;;14.88;9.50;;;3.90;99.90;;;;;;4887795;28;87022;-81
2020/12/09 11:18:42;;;;;;;15.48;9.88;;;3.90;99.90;;;;;;4887174;28;87078;-81
2020/12/09 11:21:09;;;;;;;14.73;10.00;;;4.40;99.90;;;;;;4880537;28;87526;-84
2020/12/09 11:23:35;;;;;;;12.48;9.20;;;4.00;99.90;;;;;;4889340;28;87053;-81
2020/12/09 11:26:00;;;;;;;14.38;9.38;;;4.10;99.90;;;;;;4881869;28;86938;-81
2020/12/09 11:28:26;;;;;;;12.13;8.70;;;4.10;99.90;;;;;;4887567;28;88128;-81
2020/12/09 11:30:52;;;;;;;13.43;8.65;;;4.10;99.90;;;;;;4881509;28;88372;-81
2020/12/09 11:33:17;;;;;;;13.45;8.50;;;4.30;99.90;;;;;;4890690;28;86979;-81
2020/12/09 11:35:44;;;;;;;11.32;7.32;;;4.20;99.90;;;;;;4888162;28;86817;-81
2020/12/09 11:38:09;;;;;;;15.35;8.35;;;4.20;99.90;;;;;;4888480;28;87407;-81
2020/12/09 11:40:35;;;;;;;12.95;8.45;;;4.10;99.90;;;;;;4886056;28;87189;-82
2020/12/09 11:43:01;;;;;;;12.60;8.38;;;4.20;99.90;;;;;;4888485;28;86850;-81
2020/12/09 11:45:26;;;;;;;15.52;8.82;;;4.10;99.90;;;;;;4886675;28;86371;-81
2020/12/09 11:47:52;;;;;;;18.00;10.70;;;4.00;99.90;;;;;;4891720;28;87115;-81
2020/12/09 11:50:18;;;;;;;15.38;8.60;;;4.00;99.90;;;;;;4907450;28;88244;-81
2020/12/09 11:52:43;;;;;;;14.05;8.93;;;3.90;99.90;;;;;;4901491;28;88701;-81
2020/12/09 11:55:11;;;;;;;15.32;8.80;;;3.90;99.90;;;;;;4899994;28;86599;-81
2020/12/09 11:57:38;;;;;;;16.70;9.68;;;3.90;99.90;;;;;;4901958;28;89191;-80
2020/12/09 12:00:04;;;;;;;16.52;9.68;;;4.00;99.90;;;;;;4906980;28;87457;-80
2020/12/09 12:02:30;;;;;;;13.15;8.43;;;4.00;99.90;;;;;;4908458;28;86985;-81
2020/12/09 12:04:56;;;;;;;13.23;7.10;;;4.10;99.90;;;;;;4903685;28;86980;-80
2020/12/09 12:07:22;;;;;;;9.73;7.03;;;4.20;99.90;;;;;;4909321;28;86965;-80
2020/12/09 12:09:48;;;;;;;11.82;8.13;;;4.10;99.90;;;;;;4906744;28;87064;-81
2020/12/09 12:12:14;;;;;;;11.43;8.25;;;4.10;99.90;;;;;;4901419;28;86877;-83
2020/12/09 12:14:39;;;;;;;10.18;6.53;;;4.00;99.90;;;;;;4909515;28;86825;-80
2020/12/09 12:17:08;;;;;;;10.60;8.15;;;4.30;99.90;;;;;;4901162;28;88490;-80
2020/12/09 12:19:35;;;;;;;13.60;7.82;;;4.10;99.90;;;;;;4907542;28;88087;-81
2020/12/09 12:22:02;;;;;;;10.50;6.50;;;4.20;99.90;;;;;;4904249;28;87013;-80
2020/12/09 12:24:28;;;;;;;12.93;6.88;;;4.20;99.90;;;;;;4903466;28;86843;-81
2020/12/09 12:26:53;;;;;;;9.55;6.80;;;3.90;99.90;;;;;;4901301;28;88103;-81
2020/12/09 12:29:19;;;;;;;9.60;7.05;;;4.00;99.90;;;;;;4899453;28;87114;-81
2020/12/09 12:31:45;;;;;;;8.63;6.60;;;;;;;;;;4898857;28;86618;-81
2020/12/09 12:34:11;;;;;;;8.52;5.55;;;3.80;99.90;;;;;;4906031;28;86086;-81
2020/12/09 12:36:36;;;;;;;9.55;5.68;;;3.80;99.90;;;;;;4902831;28;87765;-81
2020/12/09 12:39:02;;;;;;;9.27;7.50;;;4.00;99.90;;;;;;4909986;28;86704;-81
2020/12/09 12:41:28;;;;;;;10.88;6.85;;;4.20;99.90;;;;;;4899372;28;88023;-81
2020/12/09 12:43:54;;;;;;;10.25;7.10;;;3.90;99.90;;;;;;4889589;28;87030;-81
2020/12/09 12:46:19;;;;;;;8.70;5.72;;;3.90;99.90;;;;;;4902818;28;86630;-81
2020/12/09 12:48:45;;;;;;;8.45;6.40;;;3.80;99.90;;;;;;4908384;28;88138;-81
2020/12/09 12:51:11;;;;;;;10.55;7.70;;;3.70;99.90;;;;;;4906817;28;86455;-81
2020/12/09 12:53:36;;;;;;;10.32;5.35;;;3.70;99.90;;;;;;4909730;28;87652;-81
2020/12/09 12:56:03;;;;;;;12.13;7.45;;;3.80;99.90;;;;;;4900083;28;87211;-81
2020/12/09 12:58:30;;;;;;;11.77;7.47;;;3.90;99.90;;;;;;4894494;28;86389;-81
2020/12/09 13:00:57;;;;;;;12.02;6.80;;;3.90;99.90;;;;;;4906091;28;86867;-81
2020/12/09 13:03:23;;;;;;;8.98;6.53;;;3.70;99.90;;;;;;4909202;28;86883;-81
2020/12/09 13:05:48;;;;;;;8.80;6.53;;;3.90;99.90;;;;;;4909495;28;88134;-81
2020/12/09 13:08:14;;;;;;;10.05;6.85;;;3.50;99.90;;;;;;4907365;28;88387;-81
2020/12/09 13:10:39;;;;;;;11.95;7.35;;;3.30;99.90;;;;;;4908151;28;86987;-81
2020/12/09 13:13:05;;;;;;;12.45;7.45;;;3.30;99.90;;;;;;4910688;28;87030;-80
2020/12/09 13:15:31;;;;;;;10.63;7.63;;;3.40;99.90;;;;;;4919707;28;87088;-80
2020/12/09 13:17:57;;;;;;;10.77;6.05;;;3.40;99.90;;;;;;4916194;28;86999;-81
2020/12/09 13:20:23;;;;;;;12.45;7.50;;;3.40;99.90;;;;;;4907021;28;86976;-81
2020/12/09 13:22:48;;;;;;;12.13;8.07;;;3.50;99.90;;;;;;4912115;28;86065;-81
2020/12/09 13:25:14;;;;;;;10.48;7.20;;;3.50;99.90;;;;;;4917041;28;86867;-81
2020/12/09 13:27:40;;;;;;;8.90;7.18;;;3.50;99.90;;;;;;4905822;28;86832;-79
2020/12/09 13:30:06;;;;;;;11.18;7.30;;;3.60;99.90;;;;;;4895204;28;87770;-80
2020/12/09 13:32:32;;;;;;;14.60;7.95;;;3.50;99.90;;;;;;4901293;28;86932;-80
2020/12/09 13:34:59;;;;;;;11.40;7.35;;;3.60;99.90;;;;;;4902535;28;87193;-81
2020/12/09 13:37:26;;;;;;;10.02;7.35;;;3.70;99.90;;;;;;4896513;28;86277;-80
2020/12/09 13:39:52;;;;;;;8.88;7.05;;;3.70;99.90;;;;;;4907402;28;87007;-80
2020/12/09 13:42:18;;;;;;;11.55;7.15;;;3.60;99.90;;;;;;4908822;28;86325;-80
2020/12/09 13:44:43;;;;;;;27.27;13.00;;;3.60;99.90;;;;;;4908607;28;88438;-80
2020/12/09 13:47:09;;;;;;;19.95;11.05;;;3.70;99.90;;;;;;4906724;28;86873;-80
2020/12/09 13:49:36;;;;;;;9.82;7.05;;;3.80;99.90;;;;;;4890679;28;86287;-80
2020/12/09 13:52:02;;;;;;;13.05;7.43;;;3.80;99.90;;;;;;4912048;28;86675;-80
2020/12/09 13:54:28;;;;;;;23.70;6.65;;;3.70;99.90;;;;;;4901351;28;89513;-80
2020/12/09 13:56:55;;;;;;;11.73;7.65;;;3.90;99.90;;;;;;4891678;28;87649;-80
2020/12/09 13:59:21;;;;;;;15.05;10.55;;;3.60;99.90;;;;;;4911027;28;86938;-80
2020/12/09 14:01:50;;;;;;;13.75;9.50;;;3.90;99.90;;;;;;4906678;28;86843;-81
2020/12/09 14:04:17;;;;;;;9.10;6.28;;;3.80;99.90;;;;;;4900609;28;86909;-81
2020/12/09 14:06:43;;;;;;;15.40;10.13;;;4.10;99.90;;;;;;4908417;28;87129;-81
2020/12/09 14:09:09;;;;;;;13.45;7.68;;;3.70;99.90;;;;;;4898752;28;86970;-81
2020/12/09 14:11:35;;;;;;;9.23;6.68;;;;;;;;;;4908817;28;86367;-81
2020/12/09 14:14:02;;;;;;;10.75;6.43;;;3.80;99.90;;;;;;4889651;28;89223;-81
2020/12/09 14:16:31;;;;;;;8.90;5.30;;;3.90;99.90;;;;;;4902600;28;86690;-80
2020/12/09 14:18:58;;;;;;;9.90;7.80;;;4.20;99.90;;;;;;4900573;28;87642;-81
2020/12/09 14:21:24;;;;;;;10.55;7.80;;;3.90;99.90;;;;;;4906561;28;86979;-81
2020/12/09 14:23:53;;;;;;;8.68;6.25;;;3.90;99.90;;;;;;4895710;28;87282;-81
2020/12/09 14:26:20;;;;;;;8.80;5.65;;;3.90;99.90;;;;;;4890022;28;87149;-81
2020/12/09 14:28:47;;;;;;;12.50;8.82;;;3.90;99.90;;;;;;4901991;28;86928;-81
2020/12/09 14:31:14;;;;;;;8.40;6.80;;;4.10;99.90;;;;;;4901254;28;86976;-81
2020/12/09 14:33:40;;;;;;;9.65;7.60;;;4.10;99.90;;;;;;4898397;28;86666;-81
2020/12/09 14:36:08;;;;;;;8.57;5.85;;;4.00;99.90;;;;;;4892352;28;86205;-80
2020/12/09 14:38:34;;;;;;;10.00;6.38;;;3.80;99.90;;;;;;4896669;28;87055;-83
2020/12/09 14:41:00;;;;;;;11.38;7.90;;;3.80;99.90;;;;;;4911888;28;87580;-81
2020/12/09 14:43:25;;;;;;;8.38;6.75;;;4.30;99.90;;;;;;4910322;28;87775;-81
2020/12/09 14:45:51;;;;;;;10.02;7.35;;;3.80;99.90;;;;;;4910341;28;88758;-81
2020/12/09 14:48:17;;;;;;;8.82;6.57;;;3.60;99.90;;;;;;4898360;28;86935;-81
2020/12/09 14:50:42;;;;;;;10.75;7.65;;;3.70;99.90;;;;;;4910095;28;87484;-82
2020/12/09 14:53:08;;;;;;;7.47;6.35;;;3.70;99.90;;;;;;4906616;28;87782;-82
2020/12/09 14:55:34;;;;;;;7.85;5.63;;;3.60;99.90;;;;;;4901756;28;86881;-82
2020/12/09 14:57:59;;;;;;;8.68;6.22;;;3.50;99.90;;;;;;4892168;28;86957;-81
2020/12/09 15:00:25;;;;;;;7.50;5.00;;;3.40;99.90;;;;;;4910186;28;86232;-81
2020/12/09 15:02:54;;;;;;;6.93;5.55;;;3.40;99.90;;;;;;4909566;28;86997;-82
2020/12/09 15:05:20;;;;;;;7.93;6.25;;;3.10;99.90;;;;;;4902981;28;86982;-81
2020/12/09 15:07:46;;;;;;;9.80;7.25;;;3.00;99.90;;;;;;4891442;28;87714;-81
2020/12/09 15:10:11;;;;;;;11.32;7.07;;;3.80;99.90;;;;;;4903922;28;86756;-81
2020/12/09 15:12:37;;;;;;;10.55;5.85;;;3.30;99.90;;;;;;4904343;28;87056;-81
2020/12/09 15:15:04;;;;;;;9.10;6.97;;;3.40;99.90;;;;;;4909655;28;87045;-81
2020/12/09 15:17:29;;;;;;;11.15;6.97;;;3.40;99.90;;;;;;4897547;28;86944;-81
2020/12/09 15:19:55;;;;;;;10.38;7.63;;;3.50;99.90;;;;;;4902624;28;87061;-82
2020/12/09 15:22:21;;;;;;;12.85;6.60;;;3.50;99.90;;;;;;4899843;28;87706;-82
2020/12/09 15:24:47;;;;;;;10.90;6.53;;;;;;;;;;4904648;28;87151;-82
2020/12/09 15:27:13;;;;;;;10.27;6.93;;;3.40;99.90;;;;;;4897320;28;86981;-82
2020/12/09 15:29:38;;;;;;;8.55;6.90;;;3.60;99.90;;;;;;4901490;28;86924;-82
2020/12/09 15:32:05;;;;;;;12.15;6.65;;;3.50;99.90;;;;;;4902940;28;87737;-82
2020/12/09 15:34:31;;;;;;;11.15;8.02;;;3.50;99.90;;;;;;4908162;28;87895;-82
2020/12/09 15:36:57;;;;;;;11.10;7.20;;;3.50;99.90;;;;;;4896007;28;86720;-82
2020/12/09 15:39:23;;;;;;;11.65;9.82;;;3.10;99.90;;;;;;4909852;28;86872;-82
2020/12/09 15:41:48;;;;;;;11.10;7.22;;;3.30;99.90;;;;;;4909652;28;87291;-82
2020/12/09 15:44:14;;;;;;;11.15;8.18;;;3.40;99.90;;;;;;4907267;28;87242;-82
2020/12/09 15:46:40;;;;;;;9.98;6.63;;;3.40;99.90;;;;;;4900869;28;86965;-82
2020/12/09 15:49:06;;;;;;;11.57;6.40;;;3.40;99.90;;;;;;4900705;28;86496;-82
2020/12/09 15:51:32;;;;;;;11.93;7.97;;;3.20;99.90;;;;;;4891524;28;86891;-82
2020/12/09 15:53:58;;;;;;;11.05;7.38;;;3.30;99.90;;;;;;4900955;28;87447;-84
2020/12/09 15:56:23;;;;;;;12.80;7.13;;;3.60;99.90;;;;;;4903463;28;87282;-82
2020/12/09 15:58:49;;;;;;;15.57;8.77;;;3.30;99.90;;;;;;4906239;28;87060;-82
2020/12/09 16:01:15;;;;;;;12.27;8.00;;;3.20;99.90;;;;;;4900817;28;86984;-82
2020/12/09 16:03:41;;;;;;;14.65;8.80;;;3.20;99.90;;;;;;4903966;28;86888;-82
2020/12/09 16:06:06;;;;;;;11.93;7.88;;;3.20;99.90;;;;;;4908801;28;86741;-82
2020/12/09 16:08:32;;;;;;;9.13;6.63;;;3.20;99.90;;;;;;4901006;28;87246;-82
2020/12/09 16:10:58;;;;;;;14.52;7.40;;;3.20;99.90;;;;;;4896393;28;87015;-82
2020/12/09 16:13:24;;;;;;;11.38;6.95;;;3.30;99.90;;;;;;4897281;28;87863;-82
2020/12/09 16:15:49;;;;;;;12.48;7.53;;;3.20;99.90;;;;;;4909577;28;86950;-82
2020/12/09 16:18:15;;;;;;;10.48;7.50;;;3.20;99.90;;;;;;4907010;28;86956;-82
2020/12/09 16:20:41;;;;;;;8.70;6.60;;;3.30;99.90;;;;;;4902962;28;87787;-82
2020/12/09 16:23:06;;;;;;;10.65;6.72;;;3.20;99.90;;;;;;4908553;28;87945;-82
2020/12/09 16:25:32;;;;;;;13.23;7.95;;;3.30;99.90;;;;;;4908662;28;86717;-82
2020/12/09 16:27:58;;;;;;;10.93;6.47;;;3.30;99.90;;;;;;4908975;28;87039;-82
2020/12/09 16:30:24;;;;;;;10.68;6.82;;;3.20;99.90;;;;;;4909252;28;88194;-82